Manton, Michigan
Current Conditions -  °F | °C
As of 1:31 AM on Sunday 26 Oct 2014 (Local Time) from KCAD Reporting Station
Clear Clear  
Wind Chill: 43°   Ceiling: Unl
Heat Index: 47°   Visibility: 10mi
Dew Point: 32°   Wind: 9mph
Humidity: 55%   Direction: 300°WNW
Pressure: 29.83"   Gusts: 16mph
Location:  44.41°N, 85.4°W
Report Text: KCAD 260531Z AUTO 30008G14KT 10SM CLR 08/00 A2983 RMK AO2 T00851002
Loading
Personal Weather Stations






























Interactive Weather Map
Tropical Storm Tracking
New forecast layout! Learn more

10-Day Weather Forecast

Advertisements
Track Severe Weather on mobile